Time;durP1;ratioP1;P1;durP2;ratioP2;P2;SDS_P1;SDS_P2;PMS_P1;PMS_P2;Temp;Humidity;BMP_temperature;BMP_pressure;BME280_temperature;BME280_humidity;BME280_pressure;Samples;Min_cycle;Max_cycle;Signal;HPM_P1;HPM_P2
2022/09/01 00:00:52;;;;;;;5.68;1.88;;;15.10;99.90;;;;;;5033331;28;20034;-67
2022/09/01 00:03:21;;;;;;;3.63;1.60;;;15.00;99.90;;;;;;5033077;28;20458;-67
2022/09/01 00:05:49;;;;;;;1.90;1.60;;;15.10;99.90;;;;;;5034221;28;20048;-67
2022/09/01 00:08:15;;;;;;;3.97;1.70;;;15.10;99.90;;;;;;5032963;28;20049;-67
2022/09/01 00:10:41;;;;;;;5.05;1.98;;;15.00;99.90;;;;;;5034349;28;20037;-67
2022/09/01 00:13:07;;;;;;;5.40;1.70;;;15.00;99.90;;;;;;5034402;28;20091;-67
2022/09/01 00:15:35;;;;;;;4.78;2.05;;;15.00;99.90;;;;;;5034155;28;20055;-67
2022/09/01 00:18:01;;;;;;;4.30;1.75;;;15.00;99.90;;;;;;5034235;28;20128;-67
2022/09/01 00:20:27;;;;;;;5.47;1.88;;;14.90;99.90;;;;;;5034245;28;20121;-67
2022/09/01 00:22:53;;;;;;;3.92;1.50;;;14.80;99.90;;;;;;5034273;28;20116;-67
2022/09/01 00:25:19;;;;;;;2.10;1.80;;;14.80;99.90;;;;;;5033780;28;20112;-67
2022/09/01 00:27:47;;;;;;;4.15;1.88;;;14.80;99.90;;;;;;5032950;28;20049;-67
2022/09/01 00:30:13;;;;;;;4.05;1.70;;;14.80;99.90;;;;;;5016320;28;20045;-67
2022/09/01 00:32:38;;;;;;;8.77;2.10;;;14.80;99.90;;;;;;5032626;28;20100;-67
2022/09/01 00:35:04;;;;;;;3.42;1.73;;;14.70;99.90;;;;;;5032298;28;20049;-67
2022/09/01 00:37:30;;;;;;;5.65;1.70;;;14.60;99.90;;;;;;5033698;28;20080;-67
2022/09/01 00:39:56;;;;;;;3.70;2.15;;;14.60;99.90;;;;;;5032549;28;20045;-67
2022/09/01 00:42:21;;;;;;;3.78;1.50;;;14.60;99.90;;;;;;5033987;28;20414;-67
2022/09/01 00:44:47;;;;;;;5.22;1.77;;;14.50;99.90;;;;;;5033413;28;20037;-67
2022/09/01 00:47:13;;;;;;;6.78;2.30;;;14.60;99.90;;;;;;5032648;28;20048;-67
2022/09/01 00:49:43;;;;;;;2.40;1.52;;;14.50;99.90;;;;;;5033801;28;20526;-67
2022/09/01 00:52:19;;;;;;;5.80;1.90;;;14.60;99.90;;;;;;5033627;28;20045;-67
2022/09/01 00:54:53;;;;;;;6.80;2.03;;;14.50;99.90;;;;;;5032234;28;20057;-67
2022/09/01 00:57:19;;;;;;;2.38;1.48;;;14.60;99.90;;;;;;5033649;28;20044;-67
2022/09/01 00:59:51;;;;;;;4.63;1.67;;;14.60;99.90;;;;;;5033557;28;20037;-66
2022/09/01 01:02:17;;;;;;;4.13;1.48;;;14.60;99.90;;;;;;5032162;28;20073;-67
2022/09/01 01:04:43;;;;;;;3.08;1.70;;;14.40;99.90;;;;;;5031312;28;20123;-67
2022/09/01 01:07:10;;;;;;;3.75;1.55;;;14.50;99.90;;;;;;5033178;28;20048;-67
2022/09/01 01:09:40;;;;;;;5.57;1.90;;;14.50;99.90;;;;;;5033272;28;20038;-67
2022/09/01 01:12:10;;;;;;;3.33;1.80;;;14.50;99.90;;;;;;5033340;28;20087;-67
2022/09/01 01:14:38;;;;;;;2.38;1.83;;;14.40;99.90;;;;;;5032873;28;20042;-67
2022/09/01 01:17:05;;;;;;;2.95;1.58;;;14.30;99.90;;;;;;5033094;28;20048;-67
2022/09/01 01:25:41;;;;;;;3.28;1.83;;;14.30;99.90;;;;;;5032718;28;20045;-67
2022/09/01 01:28:17;;;;;;;7.13;1.95;;;14.30;99.90;;;;;;5032002;28;20057;-67
2022/09/01 01:30:51;;;;;;;2.45;1.90;;;14.20;99.90;;;;;;5031598;28;20503;-67
2022/09/01 01:33:22;;;;;;;3.50;1.70;;;14.20;99.90;;;;;;5032950;28;20091;-67
2022/09/01 01:35:50;;;;;;;5.28;2.10;;;14.10;99.90;;;;;;5032480;28;20480;-67
2022/09/01 01:38:16;;;;;;;4.82;1.70;;;14.10;99.90;;;;;;5031400;28;20384;-67
2022/09/01 01:40:41;;;;;;;3.67;1.75;;;14.10;99.90;;;;;;5032685;28;20037;-67
2022/09/01 01:43:10;;;;;;;1.80;1.63;;;14.10;99.90;;;;;;5031545;28;20045;-67
2022/09/01 01:45:36;;;;;;;5.00;1.75;;;14.00;99.90;;;;;;5032427;28;20411;-67
2022/09/01 01:48:04;;;;;;;2.10;1.90;;;14.00;99.90;;;;;;5031326;28;20047;-67
2022/09/01 01:50:34;;;;;;;6.35;2.00;;;14.00;99.90;;;;;;5032603;28;20064;-67
2022/09/01 01:53:03;;;;;;;2.15;1.58;;;13.90;99.90;;;;;;5032342;28;20045;-67
2022/09/01 01:55:29;;;;;;;4.22;1.83;;;13.90;99.90;;;;;;5032391;28;20107;-67
2022/09/01 01:57:56;;;;;;;3.28;1.90;;;13.90;99.90;;;;;;5032430;28;20037;-67
2022/09/01 02:00:31;;;;;;;4.15;2.03;;;13.90;99.90;;;;;;5030982;28;20045;-66
2022/09/01 02:02:57;;;;;;;2.85;1.98;;;13.90;99.90;;;;;;5032311;28;20038;-67
2022/09/01 02:05:30;;;;;;;3.80;2.13;;;13.80;99.90;;;;;;5030619;28;20044;-67
2022/09/01 02:08:00;;;;;;;3.70;1.52;;;13.80;99.90;;;;;;5030912;28;20056;-67
2022/09/01 02:10:29;;;;;;;3.08;1.83;;;13.80;99.90;;;;;;5030915;28;20045;-67
2022/09/01 02:13:03;;;;;;;3.05;2.22;;;13.70;99.90;;;;;;5032024;28;20045;-67
2022/09/01 02:15:37;;;;;;;3.65;1.90;;;13.80;99.90;;;;;;5031582;28;20045;-67
2022/09/01 02:18:04;;;;;;;3.30;1.83;;;13.70;99.90;;;;;;5030716;28;20507;-67
2022/09/01 02:20:31;;;;;;;5.82;2.13;;;13.70;99.90;;;;;;5031864;28;20056;-67
2022/09/01 02:23:09;;;;;;;2.30;1.90;;;13.70;99.90;;;;;;5030625;28;20037;-67
2022/09/01 02:25:41;;;;;;;7.90;2.10;;;13.60;99.90;;;;;;5031747;28;20411;-67
2022/09/01 02:28:11;;;;;;;5.43;1.90;;;13.70;99.90;;;;;;5031922;28;20041;-67
2022/09/01 02:30:40;;;;;;;3.88;1.65;;;13.60;99.90;;;;;;5032107;28;20052;-67
2022/09/01 02:33:07;;;;;;;3.67;2.28;;;13.60;99.90;;;;;;5030525;28;20049;-67
2022/09/01 02:35:36;;;;;;;2.72;1.67;;;13.60;99.90;;;;;;5030289;28;20049;-67
2022/09/01 02:38:04;;;;;;;6.97;2.10;;;13.60;99.90;;;;;;5031674;28;20041;-66
2022/09/01 02:40:31;;;;;;;3.05;2.10;;;13.60;99.90;;;;;;5031757;28;20164;-68
2022/09/01 02:42:58;;;;;;;7.30;2.00;;;13.50;99.90;;;;;;5030315;28;20049;-67
2022/09/01 02:45:25;;;;;;;4.28;1.80;;;13.50;99.90;;;;;;5031615;28;20045;-67
2022/09/01 02:47:52;;;;;;;5.60;2.17;;;13.50;99.90;;;;;;5031790;28;20120;-67
2022/09/01 02:50:18;;;;;;;2.80;2.00;;;13.40;99.90;;;;;;5030411;28;20045;-67
2022/09/01 02:52:51;;;;;;;5.10;2.00;;;13.50;99.90;;;;;;5031591;28;20565;-67
2022/09/01 02:55:19;;;;;;;;;;;13.40;99.90;;;;;;5031738;28;20049;-67
2022/09/01 02:57:47;;;;;;;3.15;2.10;;;13.40;99.90;;;;;;5031390;28;20399;-67
2022/09/01 03:00:21;;;;;;;3.63;2.10;;;13.40;99.90;;;;;;5014084;28;20041;-67
2022/09/01 03:02:51;;;;;;;3.70;2.08;;;13.40;99.90;;;;;;5031484;28;20033;-66
2022/09/01 03:05:24;;;;;;;3.00;2.15;;;13.40;99.90;;;;;;5029924;28;20129;-67
2022/09/01 03:07:53;;;;;;;2.30;2.10;;;13.40;99.90;;;;;;5031408;28;20069;-67
2022/09/01 03:10:20;;;;;;;2.85;1.90;;;13.40;99.90;;;;;;5031359;28;20562;-67
2022/09/01 03:12:46;;;;;;;2.25;2.00;;;13.20;99.90;;;;;;5031358;28;20096;-67
2022/09/01 03:15:12;;;;;;;2.20;1.92;;;13.20;99.90;;;;;;5031177;28;20038;-67
2022/09/01 03:17:37;;;;;;;3.17;2.20;;;13.30;99.90;;;;;;5030263;28;20095;-67
2022/09/01 03:20:05;;;;;;;2.95;2.00;;;13.20;99.90;;;;;;5031324;28;20041;-67
2022/09/01 03:22:32;;;;;;;3.85;2.45;;;13.30;99.90;;;;;;5013741;28;20045;-66
2022/09/01 03:24:58;;;;;;;2.35;2.10;;;13.30;99.90;;;;;;5031020;28;20594;-67
2022/09/01 03:27:24;;;;;;;4.78;1.90;;;13.20;99.90;;;;;;5033709;28;20072;-67
2022/09/01 03:29:49;;;;;;;2.22;2.03;;;13.30;99.90;;;;;;5034141;28;20037;-66
2022/09/01 03:32:15;;;;;;;5.40;2.30;;;13.20;99.90;;;;;;5033780;28;20047;-67
2022/09/01 03:34:40;;;;;;;2.88;1.98;;;13.20;99.90;;;;;;5033460;28;20037;-67
2022/09/01 03:37:06;;;;;;;3.60;1.98;;;13.20;99.90;;;;;;5017125;28;20033;-67
2022/09/01 03:39:32;;;;;;;2.65;1.80;;;13.20;99.90;;;;;;5033703;28;20045;-67
2022/09/01 03:41:59;;;;;;;1.85;1.73;;;13.20;99.90;;;;;;5034936;28;20501;-67
2022/09/01 03:44:25;;;;;;;2.42;2.03;;;13.20;99.90;;;;;;5034714;28;20124;-67
2022/09/01 03:46:51;;;;;;;8.00;2.47;;;13.20;99.90;;;;;;5033579;28;20038;-67
2022/09/01 03:49:26;;;;;;;4.90;2.55;;;13.20;99.90;;;;;;5033605;28;20111;-67
2022/09/01 03:51:57;;;;;;;3.35;1.92;;;13.20;99.90;;;;;;5034970;28;20045;-67
2022/09/01 03:54:29;;;;;;;8.63;2.42;;;13.20;99.90;;;;;;5034642;28;20045;-67
2022/09/01 03:56:58;;;;;;;4.57;2.10;;;13.20;99.90;;;;;;5034779;28;20052;-67
2022/09/01 03:59:24;;;;;;;4.47;2.17;;;13.20;99.90;;;;;;5034651;28;20034;-67
2022/09/01 04:01:50;;;;;;;3.17;2.10;;;13.20;99.90;;;;;;5034382;28;20511;-67
2022/09/01 04:04:16;;;;;;;3.88;2.45;;;13.30;99.90;;;;;;5034162;28;20049;-67
2022/09/01 04:06:44;;;;;;;5.82;2.20;;;13.30;99.90;;;;;;5033255;28;20029;-67
2022/09/01 04:09:09;;;;;;;3.67;2.38;;;13.30;99.90;;;;;;5033012;28;20127;-67
2022/09/01 04:11:38;;;;;;;3.95;2.20;;;13.30;99.90;;;;;;5033215;28;20531;-67
2022/09/01 04:14:04;;;;;;;6.60;2.28;;;13.30;99.90;;;;;;5034067;28;20045;-67
2022/09/01 04:19:19;;;;;;;2.53;2.30;;;13.40;99.90;;;;;;5034437;28;20053;-67
2022/09/01 04:21:46;;;;;;;4.47;2.35;;;13.30;99.90;;;;;;5032867;28;20114;-68
2022/09/01 04:24:14;;;;;;;4.05;2.28;;;13.30;99.90;;;;;;5033959;28;20036;-67
2022/09/01 04:26:40;;;;;;;3.25;2.50;;;13.30;99.90;;;;;;5032977;28;20041;-67
2022/09/01 04:29:07;;;;;;;3.38;2.38;;;13.40;99.90;;;;;;5034163;28;20121;-67
2022/09/01 04:31:36;;;;;;;2.20;2.00;;;13.30;99.90;;;;;;5016476;28;20049;-67
2022/09/01 04:34:08;;;;;;;5.20;2.72;;;13.40;99.90;;;;;;5032719;28;20450;-67
2022/09/01 04:36:36;;;;;;;5.53;2.28;;;13.30;99.90;;;;;;5033048;28;20041;-67
2022/09/01 04:39:07;;;;;;;4.22;2.40;;;13.40;99.90;;;;;;5031642;28;20038;-68
2022/09/01 04:41:36;;;;;;;3.90;2.35;;;13.30;99.90;;;;;;5030710;28;20377;-67
2022/09/01 04:44:03;;;;;;;4.32;2.40;;;13.30;99.90;;;;;;5030065;28;20037;-67
2022/09/01 04:46:33;;;;;;;3.60;2.47;;;13.30;99.90;;;;;;5033900;28;20045;-66
2022/09/01 04:49:05;;;;;;;3.53;2.63;;;13.40;99.90;;;;;;5031900;28;20624;-67
2022/09/01 04:51:31;;;;;;;3.58;2.55;;;13.30;99.90;;;;;;5031202;28;20048;-67
2022/09/01 04:53:57;;;;;;;4.30;2.60;;;13.30;99.90;;;;;;5031961;28;20419;-66
2022/09/01 04:56:25;;;;;;;2.47;2.28;;;13.40;99.90;;;;;;5033490;28;20052;-66
2022/09/01 04:58:54;;;;;;;5.57;2.55;;;13.30;99.90;;;;;;5033650;28;20120;-67
2022/09/01 05:01:24;;;;;;;2.35;2.15;;;13.40;99.90;;;;;;5033497;28;20042;-67
2022/09/01 05:03:58;;;;;;;9.20;3.20;;;13.30;99.90;;;;;;5033121;28;20046;-67
2022/09/01 05:06:23;;;;;;;3.65;2.30;;;13.30;99.90;;;;;;5032350;28;20061;-67
2022/09/01 05:08:50;;;;;;;3.97;2.30;;;13.30;99.90;;;;;;5033243;28;20439;-67
2022/09/01 05:11:17;;;;;;;5.45;2.63;;;13.30;99.90;;;;;;5033414;28;20050;-67
2022/09/01 05:13:45;;;;;;;5.60;2.55;;;13.30;99.90;;;;;;5031859;28;20046;-67
2022/09/01 05:16:13;;;;;;;3.83;2.70;;;13.30;99.90;;;;;;5033297;28;20041;-67
2022/09/01 05:18:43;;;;;;;2.78;2.47;;;13.40;99.90;;;;;;5033083;28;20045;-67
2022/09/01 05:21:09;;;;;;;3.58;2.80;;;13.40;99.90;;;;;;5032086;28;20045;-67
2022/09/01 05:23:39;;;;;;;4.20;2.63;;;13.40;99.90;;;;;;5031601;28;20041;-67
2022/09/01 05:26:15;;;;;;;4.18;2.67;;;13.50;99.90;;;;;;5032914;28;20038;-67
2022/09/01 05:28:46;;;;;;;5.40;2.80;;;13.70;99.90;;;;;;5031968;28;20128;-67
2022/09/01 05:31:12;;;;;;;5.05;2.67;;;13.70;99.90;;;;;;5032875;28;20041;-67
2022/09/01 05:33:44;;;;;;;3.53;2.80;;;13.80;99.90;;;;;;5032641;28;20080;-67
2022/09/01 05:36:11;;;;;;;4.93;2.58;;;13.90;99.90;;;;;;5033031;28;20069;-67
2022/09/01 05:38:41;;;;;;;3.75;2.65;;;14.00;99.90;;;;;;5031333;28;20045;-67
2022/09/01 05:41:10;;;;;;;3.17;2.30;;;14.10;99.90;;;;;;5031738;28;20076;-67
2022/09/01 05:43:36;;;;;;;3.33;2.58;;;14.10;99.90;;;;;;5032625;28;20044;-67
2022/09/01 05:46:07;;;;;;;4.57;2.50;;;14.20;99.90;;;;;;5032288;28;20539;-67
2022/09/01 05:48:38;;;;;;;7.20;2.47;;;14.30;99.90;;;;;;5031494;28;20045;-68
2022/09/01 05:51:05;;;;;;;5.05;2.30;;;14.30;99.90;;;;;;5030998;28;20102;-67
2022/09/01 05:53:32;;;;;;;3.95;2.70;;;14.30;99.90;;;;;;5031349;28;20056;-68
2022/09/01 05:55:59;;;;;;;5.43;2.70;;;14.30;99.90;;;;;;5030916;28;20056;-68
2022/09/01 05:58:26;;;;;;;4.05;2.65;;;14.40;99.90;;;;;;5032289;28;20040;-67
2022/09/01 06:00:57;;;;;;;4.97;2.78;;;14.40;99.90;;;;;;5032286;28;20116;-68
2022/09/01 06:03:23;;;;;;;5.43;2.95;;;14.50;99.90;;;;;;5031280;28;20391;-68
2022/09/01 06:05:52;;;;;;;3.95;2.60;;;14.60;99.90;;;;;;5031966;28;20482;-67
2022/09/01 06:08:21;;;;;;;4.80;2.65;;;14.60;99.90;;;;;;5032180;28;20045;-68
2022/09/01 06:10:49;;;;;;;6.93;2.75;;;14.60;99.90;;;;;;5014476;28;20493;-68
2022/09/01 06:13:16;;;;;;;4.32;2.40;;;14.70;99.90;;;;;;5030745;28;20520;-68
2022/09/01 06:15:43;;;;;;;3.63;2.50;;;14.70;99.90;;;;;;5032095;28;20084;-68
2022/09/01 06:18:12;;;;;;;9.02;2.97;;;14.70;99.90;;;;;;5030753;28;20053;-68
2022/09/01 06:20:39;;;;;;;4.43;2.58;;;14.80;99.90;;;;;;5030829;28;20037;-68
2022/09/01 06:23:06;;;;;;;3.45;2.70;;;14.80;99.90;;;;;;5030624;28;20044;-67
2022/09/01 06:25:31;;;;;;;6.82;2.78;;;14.80;99.90;;;;;;5031730;28;20491;-67
2022/09/01 06:27:59;;;;;;;5.95;2.65;;;14.90;99.90;;;;;;5031923;28;20038;-67
2022/09/01 06:30:25;;;;;;;4.25;2.38;;;15.00;99.90;;;;;;5032088;28;20041;-67
2022/09/01 06:32:52;;;;;;;6.70;3.00;;;14.90;99.90;;;;;;5030548;28;20114;-67
2022/09/01 06:35:19;;;;;;;3.45;2.33;;;15.00;99.90;;;;;;5031615;28;20129;-67
2022/09/01 06:37:47;;;;;;;5.70;2.47;;;15.00;99.90;;;;;;5030606;28;20048;-67
2022/09/01 06:40:17;;;;;;;5.28;3.00;;;15.00;99.90;;;;;;5031792;28;20060;-67
2022/09/01 06:42:46;;;;;;;7.65;2.88;;;15.00;99.90;;;;;;5030756;28;20453;-67
2022/09/01 06:45:17;;;;;;;3.03;2.33;;;15.00;99.90;;;;;;5031395;28;20034;-66
2022/09/01 06:47:44;;;;;;;5.70;3.05;;;15.20;99.90;;;;;;5031704;28;20131;-67
2022/09/01 06:50:13;;;;;;;4.80;2.42;;;15.20;99.90;;;;;;5031694;28;20415;-67
2022/09/01 06:52:41;;;;;;;4.97;2.55;;;15.20;99.90;;;;;;5031519;28;20044;-68
2022/09/01 06:55:08;;;;;;;4.50;2.90;;;15.30;99.90;;;;;;5030028;28;20048;-67
2022/09/01 06:57:34;;;;;;;2.85;2.30;;;15.40;99.90;;;;;;5031674;28;20050;-68
2022/09/01 07:00:14;;;;;;;3.22;2.63;;;15.50;99.90;;;;;;5031665;28;20076;-67
2022/09/01 07:02:41;;;;;;;3.80;2.22;;;15.60;99.90;;;;;;5033548;28;20612;-67
2022/09/01 07:05:07;;;;;;;7.97;2.70;;;15.60;99.90;;;;;;5035437;28;20469;-67
2022/09/01 07:07:33;;;;;;;3.88;2.35;;;15.70;99.90;;;;;;5035369;28;20250;-67
2022/09/01 07:09:59;;;;;;;4.10;2.22;;;15.70;99.90;;;;;;5034196;28;20132;-67
2022/09/01 07:12:24;;;;;;;3.75;2.40;;;15.80;99.90;;;;;;5035391;28;20037;-67
2022/09/01 07:14:51;;;;;;;3.85;2.60;;;15.80;99.90;;;;;;5035199;28;20464;-67
2022/09/01 07:17:18;;;;;;;3.67;2.50;;;15.80;99.90;;;;;;5035409;28;20055;-67
2022/09/01 07:19:44;;;;;;;3.80;2.33;;;15.90;99.90;;;;;;5035301;28;20484;-67
2022/09/01 07:22:09;;;;;;;7.38;2.67;;;16.00;99.90;;;;;;5034187;28;20107;-67
2022/09/01 07:24:35;;;;;;;3.50;2.30;;;16.00;99.90;;;;;;5035128;28;20045;-67
2022/09/01 07:27:00;;;;;;;3.70;2.53;;;16.10;99.90;;;;;;5035372;28;20500;-67
2022/09/01 07:29:27;;;;;;;6.93;2.42;;;16.10;99.90;;;;;;5033939;28;20042;-68
2022/09/01 07:31:54;;;;;;;7.72;2.30;;;16.20;99.90;;;;;;5035156;28;20045;-67
2022/09/01 07:34:20;;;;;;;5.40;2.08;;;16.30;99.90;;;;;;5034801;28;20446;-67
2022/09/01 07:36:46;;;;;;;3.10;2.25;;;16.30;99.90;;;;;;5033730;28;20041;-67
2022/09/01 07:39:12;;;;;;;3.92;2.30;;;16.40;99.90;;;;;;5033582;28;20492;-67
2022/09/01 07:41:40;;;;;;;4.25;2.20;;;16.50;99.90;;;;;;5034887;28;20044;-68
2022/09/01 07:44:12;;;;;;;4.13;1.98;;;16.50;99.90;;;;;;5034734;28;20065;-68
2022/09/01 07:46:38;;;;;;;4.65;1.95;;;16.60;99.90;;;;;;5034975;28;20037;-67
2022/09/01 07:49:05;;;;;;;2.08;1.85;;;16.70;99.90;;;;;;5034935;28;20057;-67
2022/09/01 07:51:32;;;;;;;4.72;2.22;;;16.80;99.90;;;;;;5034745;28;20041;-67
2022/09/01 07:54:01;;;;;;;3.20;2.00;;;16.80;99.90;;;;;;5033241;28;20042;-67
2022/09/01 07:56:29;;;;;;;5.90;2.28;;;16.90;99.90;;;;;;5034633;28;20133;-67
2022/09/01 07:58:56;;;;;;;3.90;2.03;;;16.90;99.90;;;;;;5033381;28;20049;-67
2022/09/01 08:01:24;;;;;;;7.38;2.00;;;17.00;99.90;;;;;;5033360;28;20037;-67
2022/09/01 08:03:53;;;;;;;5.50;2.05;;;17.10;99.90;;;;;;5032878;28;20045;-67
2022/09/01 08:06:23;;;;;;;4.40;1.90;;;17.10;99.90;;;;;;5034681;28;20042;-67
2022/09/01 08:08:50;;;;;;;3.10;2.03;;;17.20;99.90;;;;;;5016830;28;20384;-67
2022/09/01 08:11:18;;;;;;;4.25;2.10;;;17.30;99.90;;;;;;5033164;28;20045;-67
2022/09/01 08:13:44;;;;;;;3.90;1.92;;;17.30;99.90;;;;;;5033703;28;20045;-67
2022/09/01 08:16:10;;;;;;;9.43;4.10;;;17.40;99.90;;;;;;5032961;28;20045;-67
2022/09/01 08:18:36;;;;;;;5.57;1.92;;;17.50;99.90;;;;;;5033091;28;20075;-68
2022/09/01 08:21:09;;;;;;;5.15;1.70;;;17.60;99.90;;;;;;5034339;28;20044;-67
2022/09/01 08:23:36;;;;;;;4.80;1.67;;;17.70;99.90;;;;;;5034274;28;20500;-67
2022/09/01 08:26:08;;;;;;;4.72;1.85;;;17.70;99.90;;;;;;5033969;28;20045;-67
2022/09/01 08:28:34;;;;;;;3.15;1.92;;;17.80;99.90;;;;;;5034152;28;20037;-67
2022/09/01 08:31:04;;;;;;;3.38;1.80;;;17.90;99.90;;;;;;5032838;28;20049;-67
2022/09/01 08:33:33;;;;;;;3.20;1.88;;;17.90;99.90;;;;;;5032632;28;20099;-67
2022/09/01 08:35:58;;;;;;;2.05;1.60;;;18.00;99.90;;;;;;5033814;28;20049;-67
2022/09/01 08:38:24;;;;;;;2.78;1.30;;;18.10;99.90;;;;;;5033745;28;20369;-66
2022/09/01 08:40:53;;;;;;;2.33;1.45;;;18.20;99.90;;;;;;5032633;28;20048;-67
2022/09/01 08:43:57;;;;;;;1.67;1.27;;;18.20;99.90;;;;;;5033669;28;20049;-67
2022/09/01 08:46:36;;;;;;;3.05;1.35;;;18.40;99.90;;;;;;5016261;28;20060;-66
2022/09/01 08:49:14;;;;;;;3.85;1.40;;;18.50;99.90;;;;;;5032457;28;20046;-67
2022/09/01 08:51:50;;;;;;;5.35;1.55;;;18.60;99.90;;;;;;5032300;28;20052;-67
2022/09/01 08:54:38;;;;;;;4.00;1.52;;;18.70;99.90;;;;;;5033554;28;20129;-67
2022/09/01 08:57:08;;;;;;;3.05;1.30;;;18.70;99.90;;;;;;5033508;28;20042;-68
2022/09/01 08:59:34;;;;;;;1.38;1.20;;;18.80;99.90;;;;;;5033572;28;20053;-67
2022/09/01 09:02:31;;;;;;;2.20;1.30;;;19.00;99.90;;;;;;5033342;28;20037;-67
2022/09/01 09:05:38;;;;;;;2.95;1.20;;;19.00;99.90;;;;;;5031823;28;20470;-67
2022/09/01 09:08:23;;;;;;;2.13;1.20;;;19.20;99.90;;;;;;5033213;28;20049;-67
2022/09/01 09:10:59;;;;;;;3.28;1.20;;;19.30;99.90;;;;;;5033468;28;20046;-67
2022/09/01 09:13:41;;;;;;;1.25;1.00;;;19.30;99.90;;;;;;5033242;28;20456;-67
2022/09/01 09:16:22;;;;;;;5.03;1.17;;;19.30;99.90;;;;;;5032057;28;20407;-67
2022/09/01 09:19:02;;;;;;;2.75;1.30;;;19.50;99.90;;;;;;5032980;28;20046;-67
2022/09/01 09:21:40;;;;;;;5.53;0.95;;;19.60;99.90;;;;;;5033126;28;20049;-67
2022/09/01 09:24:17;;;;;;;4.07;1.20;;;19.70;99.90;;;;;;5031903;28;20029;-67
2022/09/01 09:26:55;;;;;;;3.08;0.85;;;19.90;99.90;;;;;;5032099;28;20049;-67
2022/09/01 09:29:21;;;;;;;3.53;1.00;;;19.70;99.90;;;;;;5032792;28;20503;-67
2022/09/01 09:31:47;;;;;;;4.30;1.05;;;19.80;99.90;;;;;;5033031;28;20045;-67
2022/09/01 09:34:16;;;;;;;4.10;1.10;;;19.80;99.90;;;;;;5031209;28;20049;-67
2022/09/01 09:36:44;;;;;;;1.80;0.88;;;19.90;99.90;;;;;;5032901;28;20149;-67
2022/09/01 09:39:15;;;;;;;2.38;1.08;;;20.00;99.90;;;;;;5032572;28;20103;-67
2022/09/01 09:41:41;;;;;;;4.43;1.00;;;20.10;99.90;;;;;;5032562;28;20045;-67
2022/09/01 09:44:17;;;;;;;1.42;1.10;;;20.20;99.90;;;;;;5032646;28;20396;-67
2022/09/01 09:46:46;;;;;;;3.75;0.98;;;20.30;99.90;;;;;;5014926;28;20068;-67
2022/09/01 09:49:20;;;;;;;2.53;1.38;;;20.20;99.90;;;;;;5032620;28;20042;-68
2022/09/01 09:51:51;;;;;;;3.50;0.93;;;20.30;99.90;;;;;;5014994;28;20372;-68
2022/09/01 09:54:21;;;;;;;1.77;0.85;;;20.60;99.90;;;;;;5032156;28;20042;-67
2022/09/01 09:57:00;;;;;;;2.72;0.98;;;20.50;99.90;;;;;;5033790;28;20045;-68
2022/09/01 09:59:29;;;;;;;6.15;0.90;;;20.40;99.90;;;;;;5032483;28;20076;-67
2022/09/01 10:01:59;;;;;;;2.72;1.00;;;20.70;99.90;;;;;;5032333;28;20064;-67
2022/09/01 10:04:34;;;;;;;2.78;0.80;;;20.80;99.90;;;;;;5030713;28;20495;-67
2022/09/01 10:07:00;;;;;;;3.67;0.88;;;20.70;99.60;;;;;;5032404;28;20037;-67
2022/09/01 10:09:25;;;;;;;1.48;0.80;;;20.70;99.90;;;;;;5030919;28;20118;-67
2022/09/01 10:11:54;;;;;;;2.05;0.82;;;20.70;99.20;;;;;;5031137;28;20408;-68
2022/09/01 10:14:26;;;;;;;2.65;0.60;;;20.80;98.70;;;;;;5031800;28;20510;-68
2022/09/01 10:16:59;;;;;;;2.03;0.93;;;20.80;98.70;;;;;;5032235;28;20080;-67
2022/09/01 10:19:27;;;;;;;4.88;0.90;;;20.80;98.60;;;;;;5030847;28;20045;-67
2022/09/01 10:21:53;;;;;;;1.48;0.52;;;20.70;98.50;;;;;;5031972;28;20553;-67
2022/09/01 10:24:28;;;;;;;2.25;0.70;;;20.70;98.50;;;;;;5030465;28;20116;-67
2022/09/01 10:26:59;;;;;;;1.45;0.70;;;20.70;98.10;;;;;;5030783;28;20033;-67
2022/09/01 10:29:31;;;;;;;6.50;0.95;;;20.80;97.70;;;;;;5031964;28;20045;-66
2022/09/01 10:31:59;;;;;;;1.13;0.75;;;21.00;97.50;;;;;;5032043;28;20049;-67
2022/09/01 10:34:29;;;;;;;4.82;0.90;;;21.00;97.50;;;;;;5030380;28;20060;-67
2022/09/01 10:36:56;;;;;;;2.50;0.70;;;21.10;97.90;;;;;;5031720;28;20048;-67
2022/09/01 10:39:21;;;;;;;2.10;0.60;;;21.10;97.50;;;;;;5031638;28;20056;-67
2022/09/01 10:41:52;;;;;;;2.25;0.60;;;21.20;96.60;;;;;;5030720;28;20410;-68
2022/09/01 10:44:32;;;;;;;0.70;0.65;;;21.30;96.10;;;;;;5031477;28;20042;-67
2022/09/01 10:47:19;;;;;;;2.58;0.88;;;21.30;95.70;;;;;;5031874;28;20091;-67
2022/09/01 10:49:45;;;;;;;1.45;0.75;;;21.40;96.80;;;;;;5031787;28;20142;-67
2022/09/01 10:52:30;;;;;;;0.82;0.60;;;21.50;95.80;;;;;;5030319;28;20511;-67
2022/09/01 10:55:01;;;;;;;3.03;0.63;;;21.50;95.60;;;;;;5030144;28;20041;-67
2022/09/01 10:58:09;;;;;;;2.63;0.90;;;21.70;95.50;;;;;;5031694;28;20056;-68
2022/09/01 11:00:34;;;;;;;3.92;0.75;;;21.60;94.50;;;;;;5019823;28;20129;-67
2022/09/01 11:03:12;;;;;;;4.78;0.73;;;21.60;95.00;;;;;;5031609;28;20172;-68
2022/09/01 11:06:02;;;;;;;2.30;0.70;;;21.60;94.70;;;;;;5031098;28;20500;-67
2022/09/01 11:08:28;;;;;;;1.25;0.80;;;21.70;95.30;;;;;;5030100;28;20045;-67
2022/09/01 11:11:25;;;;;;;1.40;1.00;;;21.70;94.50;;;;;;5031514;28;20038;-67
2022/09/01 11:13:54;;;;;;;1.77;0.70;;;21.70;94.80;;;;;;5031147;28;20045;-67
2022/09/01 11:16:31;;;;;;;2.15;0.70;;;21.80;94.60;;;;;;5030050;28;20057;-67
2022/09/01 11:19:36;;;;;;;1.45;0.80;;;22.00;94.90;;;;;;5030106;28;20041;-67
2022/09/01 11:22:12;;;;;;;3.25;1.00;;;21.90;93.60;;;;;;5029795;28;20049;-68
2022/09/01 11:24:37;;;;;;;1.58;0.70;;;22.00;94.40;;;;;;5031248;28;20049;-67
2022/09/01 11:27:05;;;;;;;5.20;0.70;;;21.80;94.70;;;;;;5031399;28;20038;-68
2022/09/01 11:30:14;;;;;;;1.15;0.80;;;21.80;94.70;;;;;;5030251;28;20049;-67
2022/09/01 11:32:41;;;;;;;3.22;0.73;;;21.60;94.80;;;;;;4970088;28;20105;-68
2022/09/01 11:35:17;;;;;;;2.55;0.80;;;21.70;95.10;;;;;;4969944;28;20045;-67
2022/09/01 11:37:47;;;;;;;3.42;0.68;;;21.90;95.20;;;;;;5005458;28;20061;-68
2022/09/01 11:40:20;;;;;;;1.73;0.63;;;22.00;94.80;;;;;;5030217;28;20052;-67
2022/09/01 11:42:48;;;;;;;2.30;0.82;;;22.10;94.10;;;;;;5031324;28;20041;-67
2022/09/01 11:45:35;;;;;;;1.33;0.70;;;22.10;94.00;;;;;;5029871;28;20450;-67
2022/09/01 11:48:06;;;;;;;3.92;0.70;;;22.20;94.10;;;;;;5032910;28;20041;-67
2022/09/01 11:50:37;;;;;;;0.80;0.68;;;22.10;92.80;;;;;;5034999;28;20116;-67
2022/09/01 11:53:02;;;;;;;2.22;0.90;;;22.20;93.80;;;;;;5033511;28;20045;-67
2022/09/01 11:55:49;;;;;;;2.10;0.85;;;22.00;94.00;;;;;;5033477;28;20554;-67
2022/09/01 11:58:27;;;;;;;2.58;0.57;;;21.90;93.40;;;;;;5034611;28;20076;-67
2022/09/01 12:00:55;;;;;;;1.90;1.10;;;22.10;93.70;;;;;;5034714;28;20041;-67
2022/09/01 12:03:24;;;;;;;2.35;0.90;;;22.00;93.40;;;;;;5033449;28;20061;-67
2022/09/01 12:05:58;;;;;;;5.40;0.80;;;22.10;93.70;;;;;;5034302;28;20609;-67
2022/09/01 12:08:26;;;;;;;5.93;0.98;;;22.10;92.80;;;;;;5034505;28;20038;-67
2022/09/01 12:11:10;;;;;;;1.85;0.75;;;22.30;93.60;;;;;;5033253;28;20048;-67
2022/09/01 12:13:36;;;;;;;2.25;0.93;;;22.50;93.30;;;;;;5034147;28;20048;-67
2022/09/01 12:16:05;;;;;;;2.50;0.90;;;22.50;92.80;;;;;;5033035;28;20441;-68
2022/09/01 12:18:46;;;;;;;2.60;1.00;;;22.60;93.00;;;;;;5034386;28;20047;-67
2022/09/01 12:21:41;;;;;;;6.15;0.90;;;22.60;93.10;;;;;;5034222;28;20048;-67
2022/09/01 12:24:10;;;;;;;2.72;0.77;;;22.60;93.30;;;;;;5032635;28;20047;-67
2022/09/01 12:26:36;;;;;;;18.63;2.72;;;22.70;93.20;;;;;;5034073;28;20463;-67
2022/09/01 12:29:03;;;;;;;14.98;1.80;;;22.70;92.80;;;;;;5016368;28;20052;-67
2022/09/01 12:31:29;;;;;;;3.05;0.75;;;22.80;92.40;;;;;;5034192;28;20049;-67
2022/09/01 12:33:55;;;;;;;1.73;0.70;;;22.90;92.20;;;;;;5033657;28;20055;-67
2022/09/01 12:36:26;;;;;;;0.82;0.57;;;22.90;92.10;;;;;;5033005;28;20535;-67
2022/09/01 12:39:16;;;;;;;3.75;1.00;;;22.90;91.50;;;;;;5016044;28;20042;-67
2022/09/01 12:41:43;;;;;;;5.47;0.80;;;22.70;92.10;;;;;;5033667;28;20037;-67
2022/09/01 12:44:32;;;;;;;2.50;0.70;;;22.40;91.80;;;;;;5033620;28;20045;-66
2022/09/01 12:47:19;;;;;;;2.08;0.82;;;22.20;91.90;;;;;;5033750;28;20041;-67
2022/09/01 12:49:46;;;;;;;3.47;0.80;;;22.10;91.90;;;;;;5022964;28;20050;-67
2022/09/01 12:52:18;;;;;;;3.22;0.95;;;22.00;92.50;;;;;;5033845;28;20033;-67
2022/09/01 12:54:45;;;;;;;2.45;0.77;;;21.90;91.10;;;;;;5032369;28;20072;-67
2022/09/01 12:57:26;;;;;;;3.35;0.75;;;22.00;91.70;;;;;;5033596;28;20038;-67
2022/09/01 13:00:07;;;;;;;1.33;0.65;;;22.10;91.30;;;;;;5033592;28;20057;-67
2022/09/01 13:02:55;;;;;;;3.70;0.80;;;22.10;91.20;;;;;;5032466;28;20473;-67
2022/09/01 13:05:32;;;;;;;3.13;0.82;;;22.20;90.90;;;;;;5022317;28;20124;-67
2022/09/01 13:08:01;;;;;;;2.55;0.65;;;22.50;91.40;;;;;;5032079;28;20057;-68
2022/09/01 13:10:36;;;;;;;2.25;0.80;;;22.50;91.10;;;;;;5032161;28;20053;-67
2022/09/01 13:13:03;;;;;;;2.35;0.93;;;22.60;90.40;;;;;;5033475;28;20057;-67